Time;durP1;ratioP1;P1;durP2;ratioP2;P2;SDS_P1;SDS_P2;PMS_P1;PMS_P2;Temp;Humidity;BMP_temperature;BMP_pressure;BME280_temperature;BME280_humidity;BME280_pressure;Samples;Min_cycle;Max_cycle;Signal;HPM_P1;HPM_P2
2020/12/29 00:00:14;;;;;;;26.04;14.42;;;;;;;3.05;74.91;98828.10;354129;113;1961911;-72
2020/12/29 00:01:21;;;;;;;27.89;14.33;;;;;;;3.04;75.08;98835.28;353376;113;1961028;-74
2020/12/29 00:02:28;;;;;;;28.13;15.02;;;;;;;3.09;74.93;98848.06;306493;114;2897059;-73
2020/12/29 00:03:33;;;;;;;25.01;14.26;;;;;;;3.05;75.04;98831.59;323315;113;1961854;-73
2020/12/29 00:04:38;;;;;;;28.73;14.64;;;;;;;3.09;74.94;98838.22;353022;112;1961039;-73
2020/12/29 00:05:45;;;;;;;27.01;14.81;;;;;;;3.10;74.92;98825.73;355372;113;1960985;-73
2020/12/29 00:06:53;;;;;;;29.80;14.28;;;;;;;3.08;75.06;98825.90;352731;114;1961916;-73
2020/12/29 00:07:58;;;;;;;26.28;14.83;;;;;;;3.10;74.98;98841.74;350019;115;1964858;-72
2020/12/29 00:09:06;;;;;;;26.81;14.09;;;;;;;3.03;75.21;98816.77;349962;114;1962916;-73
2020/12/29 00:10:12;;;;;;;27.17;14.57;;;;;;;3.11;75.00;98832.72;295764;114;2189331;-73
2020/12/29 00:11:17;;;;;;;25.92;14.80;;;;;;;3.16;74.77;98833.02;349756;114;1962950;-73
2020/12/29 00:12:23;;;;;;;29.19;14.97;;;;;;;3.14;74.79;98834.20;351903;115;1962022;-71
2020/12/29 00:13:28;;;;;;;27.94;15.46;;;;;;;3.14;74.82;98829.69;350960;114;1964962;-72
2020/12/29 00:14:34;;;;;;;25.24;14.24;;;;;;;3.07;74.89;98834.92;351076;115;1962984;-73
2020/12/29 00:15:40;;;;;;;27.66;15.61;;;;;;;3.09;74.94;98837.39;350651;114;1962009;-73
2020/12/29 00:16:47;;;;;;;26.67;14.37;;;;;;;3.12;74.90;98841.55;350278;114;1964962;-72
2020/12/29 00:17:54;;;;;;;26.48;14.64;;;;;;;3.09;74.90;98824.05;347666;116;1963978;-73
2020/12/29 00:19:00;;;;;;;26.72;15.04;;;;;;;3.04;75.13;98816.61;314887;110;2617167;-73
2020/12/29 00:20:06;;;;;;;25.96;14.21;;;;;;;3.04;75.12;98818.42;334214;114;1961932;-74
2020/12/29 00:21:21;;;;;;;25.93;13.67;;;;;;;2.99;75.44;98820.79;344810;111;1961971;-73
2020/12/29 00:22:27;;;;;;;25.22;15.09;;;;;;;2.99;75.52;98807.45;340360;117;1962073;-73
2020/12/29 00:23:32;;;;;;;28.36;14.66;;;;;;;2.99;75.45;98805.64;342427;118;1963028;-72
2020/12/29 00:24:38;;;;;;;27.39;14.07;;;;;;;3.04;75.27;98813.94;343431;116;1961983;-72
2020/12/29 00:25:44;;;;;;;27.65;14.47;;;;;;;3.00;75.31;98806.46;309474;116;2655006;-73
2020/12/29 00:26:50;;;;;;;28.24;14.90;;;;;;;2.98;75.37;98819.14;340593;118;1961876;-74
2020/12/29 00:27:55;;;;;;;28.21;14.24;;;;;;;3.01;75.31;98827.61;342434;116;1963035;-73
2020/12/29 00:29:04;;;;;;;23.74;13.83;;;;;;;2.94;75.56;98821.34;337253;118;1962014;-74
2020/12/29 00:30:23;;;;;;;23.16;13.70;;;;;;;2.98;75.37;98819.14;342398;116;1962023;-73
2020/12/29 00:31:28;;;;;;;25.78;13.43;;;;;;;2.99;75.32;98823.45;309815;118;2534947;-73
2020/12/29 00:32:34;;;;;;;27.76;15.03;;;;;;;2.97;75.41;98828.98;327779;118;1961914;-73
2020/12/29 00:33:39;;;;;;;28.47;13.91;;;;;;;2.89;75.72;98836.23;342820;118;1960750;-72
2020/12/29 00:34:44;;;;;;;24.41;13.38;;;;;;;2.92;75.61;98846.54;351141;116;1963961;-73
2020/12/29 00:35:50;;;;;;;24.68;12.99;;;;;;;2.96;75.47;98845.98;351186;116;1961997;-72
2020/12/29 00:36:57;;;;;;;25.02;13.38;;;;;;;2.91;75.74;98848.38;353035;114;1962032;-74
2020/12/29 00:38:03;;;;;;;23.66;12.73;;;;;;;2.88;75.84;98847.89;336410;114;2231859;-73
2020/12/29 00:39:08;;;;;;;24.28;13.32;;;;;;;2.89;75.86;98837.05;351802;114;1961978;-72
2020/12/29 00:40:14;;;;;;;23.68;12.02;;;;;;;2.95;75.45;98839.00;352826;114;1961960;-72
2020/12/29 00:41:21;;;;;;;25.06;13.13;;;;;;;2.97;75.36;98853.00;351408;114;1961975;-73
2020/12/29 00:42:31;;;;;;;25.29;14.15;;;;;;;2.95;75.45;98849.67;329846;114;1961993;-73
2020/12/29 00:43:38;;;;;;;27.60;14.36;;;;;;;2.98;75.41;98840.48;297057;114;2184529;-72
2020/12/29 00:44:43;;;;;;;24.12;13.04;;;;;;;3.01;75.33;98850.80;352549;114;1963982;-73
2020/12/29 00:45:49;;;;;;;24.39;12.99;;;;;;;3.02;75.35;98852.48;353573;114;1964031;-73
2020/12/29 00:47:05;;;;;;;23.88;14.18;;;;;;;3.05;75.39;98857.45;351715;114;1962031;-73
2020/12/29 00:48:11;;;;;;;27.96;14.24;;;;;;;3.05;75.35;98852.11;314550;109;2234017;-73
2020/12/29 00:49:16;;;;;;;26.57;14.86;;;;;;;3.00;75.49;98865.98;349598;113;1962939;-73
2020/12/29 00:50:23;;;;;;;26.66;14.74;;;;;;;3.01;75.46;98858.80;357309;111;1961966;-74
2020/12/29 00:51:29;;;;;;;29.18;15.83;;;;;;;2.96;75.55;98851.32;360728;111;1961980;-73
2020/12/29 00:52:36;;;;;;;28.28;15.48;;;;;;;2.97;75.86;98852.17;357829;111;1963975;-73
2020/12/29 00:53:44;;;;;;;28.28;15.27;;;;;;;3.03;75.54;98860.28;357189;111;1961945;-73
2020/12/29 00:54:50;;;;;;;29.88;15.13;;;;;;;3.08;75.31;98857.91;327321;111;1962965;-74
2020/12/29 00:56:00;;;;;;;30.63;15.58;;;;;;;3.05;75.34;98855.61;357381;111;1962033;-73
2020/12/29 00:57:06;;;;;;;29.59;15.03;;;;;;;3.07;75.43;98866.12;350915;115;1961963;-73
2020/12/29 00:58:11;;;;;;;28.43;15.24;;;;;;;3.12;75.31;98847.70;353120;113;1961982;-73
2020/12/29 00:59:17;;;;;;;26.29;14.72;;;;;;;3.14;75.13;98850.21;356866;111;1961976;-74
2020/12/29 01:00:24;;;;;;;26.85;14.89;;;;;;;3.16;74.96;98850.87;329155;111;2441938;-73
2020/12/29 01:01:36;;;;;;;28.41;15.74;;;;;;;3.15;75.11;98830.51;356935;111;1964987;-71
2020/12/29 01:03:00;;;;;;;30.46;16.41;;;;;;;3.16;75.04;98835.68;350672;114;1961921;-72
2020/12/29 01:04:05;;;;;;;28.73;15.21;;;;;;;3.19;74.85;98832.65;357709;111;1960683;-72
2020/12/29 01:05:21;;;;;;;27.71;14.69;;;;;;;3.19;74.73;98829.98;357666;113;1960980;-73
2020/12/29 01:06:29;;;;;;;28.63;15.36;;;;;;;3.20;74.66;98822.80;341344;112;2951970;-72
2020/12/29 01:07:38;;;;;;;28.03;15.66;;;;;;;3.18;74.78;98822.17;348615;115;1962017;-72
2020/12/29 01:08:45;;;;;;;30.56;16.75;;;;;;;3.13;74.98;98836.05;366026;111;1962023;-72
2020/12/29 01:09:53;;;;;;;28.88;14.98;;;;;;;3.05;75.30;98823.59;328395;109;1960604;-72
2020/12/29 01:10:59;;;;;;;30.99;16.22;;;;;;;3.09;75.25;98829.39;344601;115;1962039;-72
2020/12/29 01:12:16;;;;;;;30.62;16.29;;;;;;;3.08;75.30;98836.56;344577;115;1961966;-72
2020/12/29 01:13:23;;;;;;;28.64;15.62;;;;;;;3.12;75.22;98825.53;326125;115;2301901;-72
2020/12/29 01:14:28;;;;;;;29.07;15.42;;;;;;;3.16;75.07;98822.34;349946;114;1964035;-72
2020/12/29 01:15:39;;;;;;;27.41;15.31;;;;;;;3.15;75.05;98834.03;346509;115;1964088;-72
2020/12/29 01:16:46;;;;;;;28.13;16.09;;;;;;;3.17;74.98;98826.66;345813;115;1961934;-72
2020/12/29 01:17:52;;;;;;;31.09;15.66;;;;;;;3.19;74.80;98832.65;330876;115;1961997;-74
2020/12/29 01:18:58;;;;;;;28.17;15.87;;;;;;;3.21;74.77;98840.49;345188;115;1962011;-73
2020/12/29 01:20:03;;;;;;;26.71;14.68;;;;;;;3.17;75.02;98829.33;348495;115;1962076;-73
2020/12/29 01:21:10;;;;;;;28.47;16.68;;;;;;;3.17;75.07;98823.16;345890;115;1960760;-73
2020/12/29 01:22:16;;;;;;;29.48;16.34;;;;;;;3.16;75.23;98829.52;314156;115;2567940;-71
2020/12/29 01:23:22;;;;;;;30.81;16.29;;;;;;;3.18;75.03;98830.18;331441;115;1961921;-73
2020/12/29 01:24:27;;;;;;;29.01;16.16;;;;;;;3.22;74.94;98818.94;347788;115;1964069;-72
2020/12/29 01:25:33;;;;;;;27.07;14.64;;;;;;;3.25;74.76;98818.58;348105;115;1961026;-72
2020/12/29 01:26:40;;;;;;;28.11;16.65;;;;;;;3.28;74.55;98817.39;312892;115;2600850;-72
2020/12/29 01:27:46;;;;;;;26.88;14.62;;;;;;;3.26;74.61;98820.26;314000;115;1961881;-72
2020/12/29 01:28:52;;;;;;;28.86;15.35;;;;;;;3.27;74.51;98829.91;349873;115;1961963;-73
2020/12/29 01:29:57;;;;;;;28.62;15.99;;;;;;;3.26;74.60;98825.59;350067;115;1961015;-72
2020/12/29 01:31:04;;;;;;;28.56;15.33;;;;;;;3.25;74.65;98829.25;348223;115;1960921;-72
2020/12/29 01:32:09;;;;;;;24.68;13.69;;;;;;;3.30;74.56;98826.05;310547;115;1962020;-73
2020/12/29 01:33:15;;;;;;;27.38;13.98;;;;;;;3.28;74.51;98817.39;349411;115;1962975;-73
2020/12/29 01:34:21;;;;;;;29.29;15.94;;;;;;;3.26;74.60;98816.77;345560;115;1962002;-72
2020/12/29 01:35:26;;;;;;;27.44;14.85;;;;;;;3.24;74.72;98818.78;342392;116;1961914;-73
2020/12/29 01:36:33;;;;;;;28.77;15.32;;;;;;;3.20;74.80;98825.47;345306;115;1960946;-71
2020/12/29 01:37:43;;;;;;;26.26;15.34;;;;;;;3.27;74.68;98837.09;297936;118;2752957;-72
2020/12/29 01:38:49;;;;;;;29.17;15.66;;;;;;;3.26;74.76;98825.59;324331;115;2390004;-72
2020/12/29 01:39:54;;;;;;;26.18;14.84;;;;;;;3.27;74.62;98816.56;343902;115;1961886;-73
2020/12/29 01:40:59;;;;;;;29.22;15.49;;;;;;;3.24;74.76;98814.27;347112;115;1961892;-72
2020/12/29 01:42:08;;;;;;;26.02;15.11;;;;;;;3.18;74.95;98806.98;346468;115;1961988;-73
2020/12/29 01:43:14;;;;;;;23.92;13.67;;;;;;;3.12;75.39;98796.19;344689;115;1962011;-73
2020/12/29 01:44:20;;;;;;;23.79;13.62;;;;;;;3.21;75.11;98792.45;349872;115;1961974;-71
2020/12/29 01:45:26;;;;;;;28.94;14.11;;;;;;;3.21;74.95;98784.45;348849;115;1960998;-72
2020/12/29 01:46:32;;;;;;;23.76;12.73;;;;;;;3.19;74.87;98771.27;316275;115;2240081;-73
2020/12/29 01:47:39;;;;;;;25.67;13.53;;;;;;;3.18;74.92;98776.80;314605;115;1961977;-73
2020/12/29 01:48:45;;;;;;;25.58;14.09;;;;;;;3.17;74.96;98767.95;349228;115;1961918;-72
2020/12/29 01:49:51;;;;;;;26.59;15.61;;;;;;;3.22;74.89;98760.23;349826;114;1962019;-73
2020/12/29 01:50:57;;;;;;;22.69;12.59;;;;;;;3.24;74.69;98752.05;297905;115;2129890;-72
2020/12/29 01:52:02;;;;;;;23.03;13.17;;;;;;;3.23;74.64;98767.25;347420;115;1962067;-71
2020/12/29 01:53:11;;;;;;;25.86;12.57;;;;;;;3.21;74.84;98761.25;349136;115;1961912;-74
2020/12/29 01:54:17;;;;;;;24.33;13.78;;;;;;;3.18;74.86;98761.62;334689;119;1962985;-74
2020/12/29 01:55:24;;;;;;;24.44;13.42;;;;;;;3.24;74.68;98763.55;334957;119;1961056;-72
2020/12/29 01:56:35;;;;;;;22.66;12.55;;;;;;;3.20;74.83;98750.74;309526;119;1962015;-73
2020/12/29 01:57:41;;;;;;;24.24;13.34;;;;;;;3.12;75.02;98756.16;284524;120;2161482;-73
2020/12/29 01:58:46;;;;;;;27.17;14.68;;;;;;;3.18;74.96;98761.62;321909;119;1961956;-73
2020/12/29 01:59:52;;;;;;;25.36;13.44;;;;;;;3.13;75.22;98763.17;337764;119;1962046;-72
2020/12/29 02:00:57;;;;;;;24.34;13.34;;;;;;;3.16;75.24;98763.63;331790;121;1961915;-72
2020/12/29 02:02:03;;;;;;;26.14;13.83;;;;;;;3.18;75.07;98758.95;336141;119;1962027;-73
2020/12/29 02:03:11;;;;;;;25.04;13.93;;;;;;;3.21;75.03;98776.44;340179;113;1962909;-72
2020/12/29 02:04:16;;;;;;;25.38;13.32;;;;;;;3.22;74.88;98760.23;347602;114;1961944;-72
2020/12/29 02:05:23;;;;;;;28.49;15.52;;;;;;;3.22;74.89;98764.74;346485;115;1961963;-72
2020/12/29 02:06:31;;;;;;;26.14;15.23;;;;;;;3.19;75.13;98762.44;320396;115;1961999;-73
2020/12/29 02:07:36;;;;;;;26.38;14.25;;;;;;;3.23;75.08;98753.08;349273;115;1963953;-72
2020/12/29 02:08:44;;;;;;;27.46;15.07;;;;;;;3.24;75.03;98750.20;335385;119;1961932;-73
2020/12/29 02:09:50;;;;;;;26.69;15.01;;;;;;;3.25;74.85;98757.19;335697;115;1962026;-73
2020/12/29 02:10:56;;;;;;;25.89;15.62;;;;;;;3.28;74.86;98751.52;347721;115;1961950;-71
2020/12/29 02:12:22;;;;;;;26.46;15.37;;;;;;;3.21;75.09;98753.24;337361;119;1964243;-72
2020/12/29 02:13:27;;;;;;;25.91;15.28;;;;;;;3.24;75.09;98755.55;346499;115;1964007;-72
2020/12/29 02:14:33;;;;;;;28.48;15.57;;;;;;;3.26;75.00;98763.39;303236;115;2807941;-72
2020/12/29 02:15:38;;;;;;;27.17;14.92;;;;;;;3.28;74.85;98767.53;314429;115;1964032;-71
2020/12/29 02:16:44;;;;;;;26.56;14.36;;;;;;;3.29;74.82;98758.50;346098;115;1962989;-72
2020/12/29 02:17:50;;;;;;;25.97;14.64;;;;;;;3.27;74.81;98741.83;346934;115;1962957;-72
2020/12/29 02:18:55;;;;;;;24.59;14.04;;;;;;;3.29;74.50;98742.48;334828;119;1961853;-73
2020/12/29 02:20:01;;;;;;;25.12;14.52;;;;;;;3.29;74.61;98747.83;345839;115;1960741;-72
2020/12/29 02:21:06;;;;;;;24.51;14.36;;;;;;;3.29;74.67;98755.83;345499;117;1964013;-72
2020/12/29 02:22:21;;;;;;;25.58;14.27;;;;;;;3.23;74.84;98756.57;319227;115;1966909;-72
2020/12/29 02:23:26;;;;;;;27.56;14.83;;;;;;;3.24;74.74;98762.73;339024;119;1962048;-72
2020/12/29 02:24:32;;;;;;;22.68;13.20;;;;;;;3.21;74.85;98761.25;303794;115;2770027;-73
2020/12/29 02:25:38;;;;;;;27.92;14.72;;;;;;;3.23;74.92;98763.75;321775;115;1962005;-72
2020/12/29 02:26:43;;;;;;;23.71;14.23;;;;;;;3.22;74.98;98762.90;346356;115;1963002;-72
2020/12/29 02:27:50;;;;;;;29.94;14.53;;;;;;;3.25;74.93;98764.38;345685;115;1962077;-72
2020/12/29 02:28:59;;;;;;;29.61;15.63;;;;;;;3.23;74.93;98772.58;313588;115;2918929;-72
2020/12/29 02:30:05;;;;;;;26.40;14.19;;;;;;;3.28;74.76;98783.55;346190;115;1961998;-72
2020/12/29 02:31:11;;;;;;;28.45;14.26;;;;;;;3.27;74.74;98773.86;316628;115;2503934;-72
2020/12/29 02:32:20;;;;;;;24.43;12.83;;;;;;;3.28;74.76;98782.69;343795;115;1961936;-72
2020/12/29 02:33:26;;;;;;;24.04;13.98;;;;;;;3.21;74.76;98774.59;340903;115;2956967;-72
2020/12/29 02:34:31;;;;;;;24.26;13.24;;;;;;;3.28;74.77;98791.55;317945;115;1962105;-71
2020/12/29 02:35:37;;;;;;;28.15;13.82;;;;;;;3.33;74.50;98785.65;348555;115;1962020;-73
2020/12/29 02:36:43;;;;;;;23.96;13.84;;;;;;;3.33;74.52;98790.16;347086;115;1961970;-72
2020/12/29 02:37:49;;;;;;;24.37;13.61;;;;;;;3.30;74.69;98784.17;345962;115;1962015;-72
2020/12/29 02:38:55;;;;;;;26.73;14.62;;;;;;;3.34;74.49;98778.50;347668;115;1964824;-71
2020/12/29 02:40:01;;;;;;;25.54;15.44;;;;;;;3.35;74.64;98775.63;330534;115;1963985;-70
2020/12/29 02:41:06;;;;;;;24.42;13.44;;;;;;;3.37;74.61;98770.95;345529;117;1963004;-72
2020/12/29 02:42:21;;;;;;;25.41;14.15;;;;;;;3.39;74.48;98770.78;344713;115;1961971;-72
2020/12/29 02:43:26;;;;;;;24.33;12.99;;;;;;;3.44;74.25;98766.55;338575;118;1963981;-73
2020/12/29 02:44:32;;;;;;;24.91;13.22;;;;;;;3.41;74.20;98763.39;333207;117;1961977;-71
2020/12/29 02:45:37;;;;;;;22.94;12.91;;;;;;;3.43;74.11;98748.84;335213;121;1965020;-72
2020/12/29 02:46:48;;;;;;;29.39;16.05;;;;;;;3.45;74.12;98751.34;336096;119;1962068;-73
2020/12/29 02:47:54;;;;;;;24.24;13.31;;;;;;;3.43;74.02;98743.52;316500;119;2331066;-72
2020/12/29 02:48:59;;;;;;;26.68;13.38;;;;;;;3.46;73.95;98734.31;320892;119;1963030;-72
2020/12/29 02:50:06;;;;;;;22.86;13.31;;;;;;;3.41;73.99;98728.69;335280;119;1963065;-72
2020/12/29 02:51:15;;;;;;;20.44;11.97;;;;;;;3.38;74.22;98737.89;335461;119;1962034;-72
2020/12/29 02:52:20;;;;;;;20.38;11.51;;;;;;;3.30;74.34;98744.13;336261;120;1961943;-72
2020/12/29 02:53:26;;;;;;;22.28;12.02;;;;;;;3.29;74.35;98745.16;335810;119;1961936;-72
2020/12/29 02:54:31;;;;;;;21.93;10.44;;;;;;;3.25;74.44;98741.18;335084;119;1962056;-72
2020/12/29 02:55:42;;;;;;;22.04;11.76;;;;;;;3.27;74.45;98743.68;335175;121;1963004;31
2020/12/29 02:56:48;;;;;;;19.84;12.29;;;;;;;3.26;74.32;98737.52;316265;117;2353000;-73
2020/12/29 02:57:54;;;;;;;21.99;12.43;;;;;;;3.24;74.47;98749.39;319479;119;1961918;-72
2020/12/29 02:58:59;;;;;;;22.17;11.42;;;;;;;3.20;74.59;98738.25;334592;119;1961977;-72
2020/12/29 03:00:06;;;;;;;21.21;12.37;;;;;;;3.23;74.57;98737.89;335247;120;1961969;-73
2020/12/29 03:01:11;;;;;;;20.25;11.28;;;;;;;3.21;74.69;98733.73;337112;120;1962059;-72
2020/12/29 03:02:17;;;;;;;20.70;10.75;;;;;;;3.27;74.66;98730.34;303139;118;2637062;-73
2020/12/29 03:03:22;;;;;;;21.22;11.16;;;;;;;3.30;74.53;98729.97;324278;120;1962975;-73
2020/12/29 03:04:28;;;;;;;20.62;12.25;;;;;;;3.28;74.39;98735.50;339281;118;1964003;-72
2020/12/29 03:05:33;;;;;;;18.62;10.45;;;;;;;3.28;74.55;98734.65;336002;120;1961950;-72
2020/12/29 03:06:39;;;;;;;17.47;10.56;;;;;;;3.27;74.59;98725.82;338345;119;1961892;-70
2020/12/29 03:07:44;;;;;;;20.61;10.91;;;;;;;3.34;74.39;98728.60;338516;118;1962042;-71
2020/12/29 03:08:50;;;;;;;23.71;12.57;;;;;;;3.33;74.29;98726.10;343728;118;1962943;-73
2020/12/29 03:09:57;;;;;;;20.21;11.18;;;;;;;3.25;74.49;98722.50;335535;117;1961954;-73
2020/12/29 03:11:04;;;;;;;19.53;11.53;;;;;;;3.28;74.59;98726.64;340947;116;1961928;-73
2020/12/29 03:12:11;;;;;;;20.96;12.46;;;;;;;3.27;74.38;98733.83;343679;116;1961985;-73
2020/12/29 03:13:16;;;;;;;20.85;10.14;;;;;;;3.25;74.37;98735.84;336675;118;1961955;-73
2020/12/29 03:14:22;;;;;;;18.40;10.69;;;;;;;3.30;74.42;98729.97;341622;118;1961951;-72
2020/12/29 03:15:27;;;;;;;21.08;9.94;;;;;;;3.30;74.32;98727.30;341520;117;1961994;-73
2020/12/29 03:16:33;;;;;;;22.58;11.34;;;;;;;3.27;74.39;98733.83;340298;118;1963968;-74
2020/12/29 03:17:40;;;;;;;20.12;10.63;;;;;;;3.24;74.60;98728.03;323792;118;1962000;-72
2020/12/29 03:18:46;;;;;;;19.53;10.72;;;;;;;3.26;74.51;98732.18;337451;119;1962002;-71
2020/12/29 03:19:51;;;;;;;19.97;10.79;;;;;;;3.23;74.75;98724.55;343945;118;1962953;-73
2020/12/29 03:20:56;;;;;;;18.18;10.22;;;;;;;3.27;74.58;98728.48;343511;118;1961992;-72
2020/12/29 03:22:03;;;;;;;18.89;11.37;;;;;;;3.25;74.69;98724.34;344325;116;1962995;-73
2020/12/29 03:23:09;;;;;;;20.59;11.94;;;;;;;3.27;74.56;98728.48;335941;116;2958974;-72
2020/12/29 03:24:14;;;;;;;18.94;10.34;;;;;;;3.30;74.50;98714.77;306581;116;1963958;-72
2020/12/29 03:25:19;;;;;;;20.54;11.58;;;;;;;3.28;74.58;98715.97;329189;119;1961953;-72
2020/12/29 03:26:25;;;;;;;18.69;10.17;;;;;;;3.32;74.41;98708.45;339382;118;1963034;-72
2020/12/29 03:27:31;;;;;;;19.29;9.98;;;;;;;3.24;74.53;98709.35;343418;117;1962100;-72
2020/12/29 03:28:37;;;;;;;17.69;9.91;;;;;;;3.22;74.62;98701.52;337377;118;1961957;-72
2020/12/29 03:29:43;;;;;;;16.19;9.53;;;;;;;3.16;74.90;98702.25;301135;116;2789014;-73
2020/12/29 03:30:48;;;;;;;16.29;10.60;;;;;;;3.21;74.75;98707.88;323308;120;1963001;-73
2020/12/29 03:32:08;;;;;;;18.86;10.72;;;;;;;3.26;74.54;98707.34;344384;116;1961999;-72
2020/12/29 03:33:14;;;;;;;18.92;10.57;;;;;;;3.23;74.60;98710.38;354903;112;1962907;-72
2020/12/29 03:34:27;;;;;;;19.17;11.63;;;;;;;3.24;74.62;98704.84;354516;112;1962956;-72
2020/12/29 03:35:32;;;;;;;19.50;10.29;;;;;;;3.24;74.67;98709.35;300731;114;2144999;-73
2020/12/29 03:36:38;;;;;;;20.37;10.68;;;;;;;3.23;74.79;98713.05;346852;116;1962057;-72
2020/12/29 03:37:43;;;;;;;21.10;10.98;;;;;;;3.21;74.98;98699.05;349918;114;1962035;-73
2020/12/29 03:38:51;;;;;;;17.47;11.33;;;;;;;3.24;74.85;98702.17;348795;116;1962004;-73
2020/12/29 03:39:57;;;;;;;22.12;11.57;;;;;;;3.23;75.00;98694.36;323641;113;2487048;-72
2020/12/29 03:41:02;;;;;;;22.50;10.70;;;;;;;3.19;75.00;98691.21;311576;119;1961960;-72
2020/12/29 03:42:07;;;;;;;21.51;11.57;;;;;;;3.16;75.34;98696.92;341322;114;1963006;-72
2020/12/29 03:43:13;;;;;;;19.58;10.98;;;;;;;3.21;75.20;98699.05;355218;112;1962045;-72
2020/12/29 03:44:18;;;;;;;21.36;11.16;;;;;;;3.20;75.12;98694.70;355781;112;1962066;-72
2020/12/29 03:45:24;;;;;;;19.58;11.51;;;;;;;3.25;75.01;98709.16;352597;113;1962065;-72
2020/12/29 03:46:31;;;;;;;19.09;10.82;;;;;;;3.24;74.90;98718.18;312308;116;1961968;-73
2020/12/29 03:47:36;;;;;;;18.04;10.53;;;;;;;3.23;75.11;98718.38;337327;115;1962472;-72
2020/12/29 03:48:41;;;;;;;19.00;10.79;;;;;;;3.24;75.04;98725.36;348362;116;1962057;-72
2020/12/29 03:49:47;;;;;;;20.65;11.43;;;;;;;3.21;75.14;98725.73;352930;115;1961945;-72
2020/12/29 03:50:54;;;;;;;19.06;11.31;;;;;;;3.19;75.30;98731.23;349126;116;1962018;-72
2020/12/29 03:52:00;;;;;;;19.82;11.78;;;;;;;3.22;75.11;98733.54;313228;115;2705005;-72
2020/12/29 03:53:05;;;;;;;21.06;11.22;;;;;;;3.23;75.15;98742.41;316551;114;1962981;-72
2020/12/29 03:54:11;;;;;;;22.61;13.12;;;;;;;3.22;75.24;98751.40;340196;116;1963919;-72
2020/12/29 03:55:17;;;;;;;20.99;12.93;;;;;;;3.26;75.12;98739.36;341716;119;1961968;-72
2020/12/29 03:56:23;;;;;;;22.86;13.09;;;;;;;3.24;75.14;98739.53;342598;116;1960997;-72
2020/12/29 03:57:29;;;;;;;24.26;14.62;;;;;;;3.26;75.12;98723.35;308025;117;2606996;-73
2020/12/29 03:58:35;;;;;;;22.87;13.14;;;;;;;3.20;75.27;98711.57;337094;114;1962035;-72
2020/12/29 03:59:40;;;;;;;25.21;15.66;;;;;;;3.16;75.39;98693.42;348048;114;1961931;-72
2020/12/29 04:00:46;;;;;;;22.03;12.51;;;;;;;3.18;75.43;98704.75;348626;114;1962977;-72
2020/12/29 04:01:51;;;;;;;19.74;12.38;;;;;;;3.19;75.50;98698.39;353932;113;1962030;-72
2020/12/29 04:02:56;;;;;;;21.01;12.11;;;;;;;3.18;75.49;98689.56;353534;113;1963020;-72
2020/12/29 04:04:02;;;;;;;22.02;12.26;;;;;;;3.17;75.40;98679.88;352669;113;1961929;-73
2020/12/29 04:05:09;;;;;;;22.43;12.38;;;;;;;3.17;75.42;98687.06;333968;114;2262968;-72
2020/12/29 04:06:17;;;;;;;22.86;13.01;;;;;;;3.19;75.23;98682.37;353539;112;1964998;-73
2020/12/29 04:07:23;;;;;;;19.44;11.88;;;;;;;3.17;75.29;98689.73;325005;114;2497976;-72
2020/12/29 04:08:28;;;;;;;19.98;11.06;;;;;;;3.21;75.26;98701.72;352193;114;1963936;-72
2020/12/29 04:09:34;;;;;;;23.30;12.70;;;;;;;3.16;75.32;98694.25;354111;112;1961876;-73
2020/12/29 04:10:40;;;;;;;20.79;11.75;;;;;;;3.15;75.40;98684.59;353318;114;1962998;-72
2020/12/29 04:11:45;;;;;;;22.24;12.29;;;;;;;3.09;75.50;98677.30;347080;116;1961940;-71
2020/12/29 04:12:51;;;;;;;20.89;11.27;;;;;;;3.06;75.68;98691.83;347170;116;1961958;-72
2020/12/29 04:13:57;;;;;;;21.79;12.16;;;;;;;3.09;75.66;98682.64;315111;115;2665944;-72
2020/12/29 04:15:03;;;;;;;20.37;12.36;;;;;;;3.14;75.40;98671.42;326953;113;1961996;-73
2020/12/29 04:16:11;;;;;;;20.42;10.88;;;;;;;3.11;75.36;98666.46;354039;114;1961995;-72
2020/12/29 04:17:16;;;;;;;20.41;11.58;;;;;;;3.14;75.39;98666.91;337252;113;2238004;-73
2020/12/29 04:18:22;;;;;;;20.94;11.49;;;;;;;3.07;75.48;98668.67;320763;116;1963055;-72
2020/12/29 04:19:27;;;;;;;24.16;12.69;;;;;;;3.07;75.57;98674.83;342653;116;1961932;-72
2020/12/29 04:20:35;;;;;;;24.01;11.42;;;;;;;3.07;75.50;98680.17;347777;114;1962051;-72
2020/12/29 04:21:41;;;;;;;19.97;11.67;;;;;;;3.09;75.53;98677.30;295114;119;2862031;-72
2020/12/29 04:22:46;;;;;;;19.86;11.65;;;;;;;3.10;75.62;98676.31;313212;115;1961961;-73
2020/12/29 04:23:51;;;;;;;19.99;10.19;;;;;;;3.06;75.77;98658.99;334851;116;1963927;-72
2020/12/29 04:24:57;;;;;;;20.81;11.16;;;;;;;3.16;75.43;98661.41;347967;116;1961916;-73
2020/12/29 04:26:12;;;;;;;19.65;10.98;;;;;;;3.08;75.55;98662.31;340885;116;1964992;-72
2020/12/29 04:27:17;;;;;;;20.62;12.35;;;;;;;3.09;75.44;98670.12;358793;111;1964014;-73
2020/12/29 04:28:24;;;;;;;20.64;11.39;;;;;;;3.16;75.24;98669.41;358644;110;1961952;-72
2020/12/29 04:29:31;;;;;;;21.47;11.13;;;;;;;3.11;75.25;98666.46;355012;111;1961997;-72
2020/12/29 04:30:37;;;;;;;19.28;11.43;;;;;;;3.11;75.41;98674.46;353187;113;1962029;-72
2020/12/29 04:31:43;;;;;;;19.08;10.99;;;;;;;3.11;75.43;98680.63;347747;115;1961965;-72
2020/12/29 04:32:49;;;;;;;20.07;12.23;;;;;;;3.09;75.52;98695.98;311933;113;2760928;-72
2020/12/29 04:33:54;;;;;;;19.71;11.92;;;;;;;3.06;75.57;98691.01;331385;112;1963777;-72
2020/12/29 04:35:00;;;;;;;20.26;10.82;;;;;;;3.07;75.57;98692.69;350239;113;1961838;-72
2020/12/29 04:36:07;;;;;;;22.29;11.07;;;;;;;3.09;75.57;98696.80;344428;116;1961910;-73
2020/12/29 04:37:14;;;;;;;22.99;12.46;;;;;;;3.10;75.46;98711.00;308279;113;2100970;-72
2020/12/29 04:38:20;;;;;;;20.68;12.19;;;;;;;3.10;75.55;98705.66;356113;113;1962000;-73
2020/12/29 04:39:26;;;;;;;21.57;12.67;;;;;;;3.12;75.49;98708.95;357284;113;1960942;-72
2020/12/29 04:40:33;;;;;;;18.54;11.43;;;;;;;3.11;75.52;98695.81;333331;113;2359942;-72
2020/12/29 04:41:41;;;;;;;19.95;10.24;;;;;;;3.08;75.64;98697.00;346908;115;1960907;-72
2020/12/29 04:42:47;;;;;;;19.04;10.54;;;;;;;3.06;75.63;98680.34;355153;113;1960841;-72
2020/12/29 04:43:55;;;;;;;22.28;11.55;;;;;;;3.09;75.48;98687.97;316617;113;2057289;-74
2020/12/29 04:45:01;;;;;;;21.21;11.41;;;;;;;3.09;75.52;98680.80;353327;113;1961940;-73
2020/12/29 04:46:07;;;;;;;19.23;10.51;;;;;;;3.03;75.81;98684.20;310694;113;2235911;-72
2020/12/29 04:47:13;;;;;;;20.52;11.85;;;;;;;3.01;75.84;98669.38;325589;113;1962035;-72
2020/12/29 04:48:18;;;;;;;17.63;10.58;;;;;;;3.03;75.79;98670.03;354805;113;1961908;-73
2020/12/29 04:49:24;;;;;;;19.02;10.58;;;;;;;3.01;75.81;98672.05;355450;113;1962086;-74
2020/12/29 04:50:33;;;;;;;20.22;11.46;;;;;;;3.01;75.78;98672.05;331201;113;2230982;-73
2020/12/29 04:51:39;;;;;;;21.15;11.81;;;;;;;2.98;75.95;98667.08;354010;113;1962077;-74
2020/12/29 04:52:46;;;;;;;18.31;10.54;;;;;;;2.98;76.01;98661.75;355666;113;1961980;-73
2020/12/29 04:54:06;;;;;;;23.71;12.41;;;;;;;3.02;75.96;98655.05;357862;112;1962010;-73
2020/12/29 04:55:26;;;;;;;20.44;11.28;;;;;;;3.03;75.83;98651.36;334667;112;1961988;-73
2020/12/29 04:56:33;;;;;;;17.89;11.03;;;;;;;2.99;76.07;98639.38;336811;115;1963028;-73
2020/12/29 04:57:42;;;;;;;21.98;12.41;;;;;;;3.03;75.82;98652.18;344157;116;1961977;-73
2020/12/29 04:58:48;;;;;;;18.23;10.21;;;;;;;3.04;75.88;98658.34;344429;116;1963002;-73
2020/12/29 04:59:54;;;;;;;20.76;11.62;;;;;;;2.97;75.99;98652.92;339867;117;1962044;-73
2020/12/29 05:01:06;;;;;;;20.92;12.63;;;;;;;2.97;75.87;98660.92;311290;110;2525950;-72
2020/12/29 05:02:12;;;;;;;23.47;10.99;;;;;;;2.95;76.04;98667.45;338416;117;1962032;-72
2020/12/29 05:03:18;;;;;;;21.36;11.84;;;;;;;2.97;75.97;98670.77;340815;117;1965053;-72